Impacts TAF Board INFO
FOR SITUATIONAL AWARENESS. NOT TO BE USED FOR FLIGHT PLANNING PURPOSES.
IDs:

KMIA - Miami Intl, FL, US

Issued at 2326 UTC 12 Dec 2017
Updated at 0130 UTC 13 Dec 2017
Potential Impact None Slight Moderate High
Time<<13/14Z 13/15Z 13/16Z 13/17Z 13/18Z 13/19Z 13/20Z 13/21Z 13/22Z 13/23Z 14/00Z 14/01Z 14/02Z>>
Type PRVL PRVL PRVL PRVL PRVL PRVL PRVL PRVL PRVL PRVL PRVL PRVL PRVL
VIS >6 >6 >6 >6 >6 >6 >6 >6 >6 >6 >6 >6 >6
CIG -- -- -- -- -- -- -- -- -- -- -- -- --
Cover SKC SKC SKC SKC SKC SKC SKC SKC SKC SKC SKC SKC SKC
FltCat VFR VFR VFR VFR VFR VFR VFR VFR VFR VFR VFR VFR VFR
WX -- -- -- -- -- -- -- -- -- -- -- -- --
WDir 320 320 320 320 320 320 320 320 340 340 340 VRB VRB
WSpd 8 8 8 8 8 8 8 8 5 5 5 0 0
WGst -- -- -- -- -- -- -- -- -- -- -- -- --

Raw TAF
KMIA 122326Z 1300/1406 25008KT P6SM FEW040 FEW250
  FM130600 32008KT P6SM SKC
  FM132200 34005KT P6SM SKC
  FM140100 00000KT P6SM SKC


METAR Board
Radar Display
Forecast Discussion

FOR SITUATIONAL AWARENESS. NOT TO BE USED FOR FLIGHT PLANNING PURPOSES.